sensor_id;sensor_type;location;lat;lon;timestamp;temperature;humidity
11925;DHT22;6022;48.768;18.608;2023-11-19T00:14:20;2.90;99.90
11925;DHT22;6022;48.768;18.608;2023-11-19T00:21:46;2.70;99.90
11925;DHT22;6022;48.768;18.608;2023-11-19T00:26:47;2.40;99.90
11925;DHT22;6022;48.768;18.608;2023-11-19T00:31:48;6.30;99.90
11925;DHT22;6022;48.768;18.608;2023-11-19T00:34:17;2.80;99.90
11925;DHT22;6022;48.768;18.608;2023-11-19T00:36:51;3.30;99.90
11925;DHT22;6022;48.768;18.608;2023-11-19T00:46:50;2.90;99.90
11925;DHT22;6022;48.768;18.608;2023-11-19T00:49:18;1.70;99.90
11925;DHT22;6022;48.768;18.608;2023-11-19T00:51:48;2.90;99.90
11925;DHT22;6022;48.768;18.608;2023-11-19T00:56:45;2.20;99.90
11925;DHT22;6022;48.768;18.608;2023-11-19T01:04:18;2.30;99.90
11925;DHT22;6022;48.768;18.608;2023-11-19T01:11:44;2.10;99.90
11925;DHT22;6022;48.768;18.608;2023-11-19T01:16:42;1.80;99.90
11925;DHT22;6022;48.768;18.608;2023-11-19T01:21:45;2.00;99.90
11925;DHT22;6022;48.768;18.608;2023-11-19T01:24:12;2.30;99.90
11925;DHT22;6022;48.768;18.608;2023-11-19T01:29:19;2.00;99.90
11925;DHT22;6022;48.768;18.608;2023-11-19T01:34:18;2.60;99.90
11925;DHT22;6022;48.768;18.608;2023-11-19T01:36:47;1.90;99.90
11925;DHT22;6022;48.768;18.608;2023-11-19T01:39:18;2.70;99.90
11925;DHT22;6022;48.768;18.608;2023-11-19T01:41:50;1.90;99.90
11925;DHT22;6022;48.768;18.608;2023-11-19T01:46:47;1.90;99.90
11925;DHT22;6022;48.768;18.608;2023-11-19T01:49:17;2.20;99.90
11925;DHT22;6022;48.768;18.608;2023-11-19T01:51:50;1.50;99.90
11925;DHT22;6022;48.768;18.608;2023-11-19T01:59:15;1.70;99.90
11925;DHT22;6022;48.768;18.608;2023-11-19T02:01:44;1.30;99.90
11925;DHT22;6022;48.768;18.608;2023-11-19T02:06:56;2.40;99.90
11925;DHT22;6022;48.768;18.608;2023-11-19T02:09:26;1.60;99.90
11925;DHT22;6022;48.768;18.608;2023-11-19T02:11:59;1.40;99.90
11925;DHT22;6022;48.768;18.608;2023-11-19T02:18:24;2.60;99.90
11925;DHT22;6022;48.768;18.608;2023-11-19T02:20:57;1.60;99.90
11925;DHT22;6022;48.768;18.608;2023-11-19T02:23:29;1.50;99.90
11925;DHT22;6022;48.768;18.608;2023-11-19T02:26:32;1.60;99.90
11925;DHT22;6022;48.768;18.608;2023-11-19T02:29:11;1.40;99.90
11925;DHT22;6022;48.768;18.608;2023-11-19T02:31:42;1.60;99.90
11925;DHT22;6022;48.768;18.608;2023-11-19T02:36:46;1.60;99.90
11925;DHT22;6022;48.768;18.608;2023-11-19T02:39:17;1.70;99.90
11925;DHT22;6022;48.768;18.608;2023-11-19T02:44:20;1.80;99.90
11925;DHT22;6022;48.768;18.608;2023-11-19T02:51:47;1.80;99.90
11925;DHT22;6022;48.768;18.608;2023-11-19T02:59:22;1.60;99.90
11925;DHT22;6022;48.768;18.608;2023-11-19T03:04:25;1.50;99.90
11925;DHT22;6022;48.768;18.608;2023-11-19T03:09:21;1.70;99.90
11925;DHT22;6022;48.768;18.608;2023-11-19T03:14:20;1.20;99.90
11925;DHT22;6022;48.768;18.608;2023-11-19T03:16:51;1.60;99.90
11925;DHT22;6022;48.768;18.608;2023-11-19T03:19:19;2.10;99.90
11925;DHT22;6022;48.768;18.608;2023-11-19T03:26:49;1.80;99.90
11925;DHT22;6022;48.768;18.608;2023-11-19T03:31:48;1.40;99.90
11925;DHT22;6022;48.768;18.608;2023-11-19T03:39:14;1.20;99.90
11925;DHT22;6022;48.768;18.608;2023-11-19T03:41:45;0.70;99.90
11925;DHT22;6022;48.768;18.608;2023-11-19T03:44:14;1.50;99.90
11925;DHT22;6022;48.768;18.608;2023-11-19T03:46:42;0.70;99.90
11925;DHT22;6022;48.768;18.608;2023-11-19T03:54:10;1.40;99.90
11925;DHT22;6022;48.768;18.608;2023-11-19T03:56:41;1.10;99.90
11925;DHT22;6022;48.768;18.608;2023-11-19T03:59:10;1.10;99.90
11925;DHT22;6022;48.768;18.608;2023-11-19T04:01:39;1.20;99.90
11925;DHT22;6022;48.768;18.608;2023-11-19T04:04:07;1.00;99.90
11925;DHT22;6022;48.768;18.608;2023-11-19T04:06:35;1.30;99.90
11925;DHT22;6022;48.768;18.608;2023-11-19T04:09:03;1.20;99.90
11925;DHT22;6022;48.768;18.608;2023-11-19T04:11:31;1.10;99.90
11925;DHT22;6022;48.768;18.608;2023-11-19T04:16:32;1.70;99.90
11925;DHT22;6022;48.768;18.608;2023-11-19T04:21:28;1.10;99.90
11925;DHT22;6022;48.768;18.608;2023-11-19T04:36:19;1.50;99.90
11925;DHT22;6022;48.768;18.608;2023-11-19T04:41:16;2.30;99.90
11925;DHT22;6022;48.768;18.608;2023-11-19T04:51:13;1.00;99.90
11925;DHT22;6022;48.768;18.608;2023-11-19T04:53:45;1.70;99.90
11925;DHT22;6022;48.768;18.608;2023-11-19T04:56:15;1.50;99.90
11925;DHT22;6022;48.768;18.608;2023-11-19T04:58:49;1.80;99.90
11925;DHT22;6022;48.768;18.608;2023-11-19T05:01:20;1.70;99.90
11925;DHT22;6022;48.768;18.608;2023-11-19T05:03:52;1.20;99.90
11925;DHT22;6022;48.768;18.608;2023-11-19T05:06:21;1.40;99.90
11925;DHT22;6022;48.768;18.608;2023-11-19T05:08:54;1.30;99.90
11925;DHT22;6022;48.768;18.608;2023-11-19T05:11:23;1.60;99.90
11925;DHT22;6022;48.768;18.608;2023-11-19T05:16:19;1.20;99.90
11925;DHT22;6022;48.768;18.608;2023-11-19T05:23:45;1.40;99.90
11925;DHT22;6022;48.768;18.608;2023-11-19T05:26:19;0.60;99.90
11925;DHT22;6022;48.768;18.608;2023-11-19T05:28:49;1.30;99.90
11925;DHT22;6022;48.768;18.608;2023-11-19T05:31:18;1.20;99.90
11925;DHT22;6022;48.768;18.608;2023-11-19T05:33:46;1.60;99.90
11925;DHT22;6022;48.768;18.608;2023-11-19T05:36:15;1.30;99.90
11925;DHT22;6022;48.768;18.608;2023-11-19T05:38:43;1.20;99.90
11925;DHT22;6022;48.768;18.608;2023-11-19T05:43:40;1.50;99.90
11925;DHT22;6022;48.768;18.608;2023-11-19T05:46:08;1.30;99.90
11925;DHT22;6022;48.768;18.608;2023-11-19T05:51:08;0.90;99.90
11925;DHT22;6022;48.768;18.608;2023-11-19T05:53:40;1.50;99.90
11925;DHT22;6022;48.768;18.608;2023-11-19T05:56:13;1.70;99.90
11925;DHT22;6022;48.768;18.608;2023-11-19T05:58:43;1.70;99.90
11925;DHT22;6022;48.768;18.608;2023-11-19T06:03:43;1.80;99.90
11925;DHT22;6022;48.768;18.608;2023-11-19T06:06:15;1.20;99.90
11925;DHT22;6022;48.768;18.608;2023-11-19T06:08:44;1.50;99.90
11925;DHT22;6022;48.768;18.608;2023-11-19T06:11:16;1.20;99.90
11925;DHT22;6022;48.768;18.608;2023-11-19T06:13:49;1.80;99.90
11925;DHT22;6022;48.768;18.608;2023-11-19T06:18:48;0.80;99.90
11925;DHT22;6022;48.768;18.608;2023-11-19T06:21:22;0.80;99.90
11925;DHT22;6022;48.768;18.608;2023-11-19T06:26:21;1.00;99.90
11925;DHT22;6022;48.768;18.608;2023-11-19T06:28:50;1.60;99.90
11925;DHT22;6022;48.768;18.608;2023-11-19T06:31:18;1.70;99.90
11925;DHT22;6022;48.768;18.608;2023-11-19T06:33:46;1.30;99.90
11925;DHT22;6022;48.768;18.608;2023-11-19T06:36:17;1.60;99.90
11925;DHT22;6022;48.768;18.608;2023-11-19T06:39:15;1.20;99.90
11925;DHT22;6022;48.768;18.608;2023-11-19T06:41:46;1.00;99.90
11925;DHT22;6022;48.768;18.608;2023-11-19T06:44:14;1.60;99.90
11925;DHT22;6022;48.768;18.608;2023-11-19T06:46:48;1.50;99.90
11925;DHT22;6022;48.768;18.608;2023-11-19T06:49:23;0.90;99.90
11925;DHT22;6022;48.768;18.608;2023-11-19T06:51:54;1.70;99.90
11925;DHT22;6022;48.768;18.608;2023-11-19T06:54:24;1.50;99.90
11925;DHT22;6022;48.768;18.608;2023-11-19T06:56:52;1.20;99.90
11925;DHT22;6022;48.768;18.608;2023-11-19T06:59:20;1.10;99.90
11925;DHT22;6022;48.768;18.608;2023-11-19T07:04:17;1.50;99.90
11925;DHT22;6022;48.768;18.608;2023-11-19T07:06:45;1.50;99.90
11925;DHT22;6022;48.768;18.608;2023-11-19T07:11:44;1.50;99.90
11925;DHT22;6022;48.768;18.608;2023-11-19T07:14:17;1.60;99.90
11925;DHT22;6022;48.768;18.608;2023-11-19T07:16:47;1.20;99.90
11925;DHT22;6022;48.768;18.608;2023-11-19T07:19:15;1.50;99.90
11925;DHT22;6022;48.768;18.608;2023-11-19T07:21:43;2.00;99.90
11925;DHT22;6022;48.768;18.608;2023-11-19T07:26:47;1.50;99.90
11925;DHT22;6022;48.768;18.608;2023-11-19T07:29:15;2.50;99.90
11925;DHT22;6022;48.768;18.608;2023-11-19T07:31:51;2.30;99.90
11925;DHT22;6022;48.768;18.608;2023-11-19T07:34:21;1.80;99.90
11925;DHT22;6022;48.768;18.608;2023-11-19T07:39:17;1.70;99.90
11925;DHT22;6022;48.768;18.608;2023-11-19T07:41:47;1.40;99.90
11925;DHT22;6022;48.768;18.608;2023-11-19T07:46:44;1.80;99.90
11925;DHT22;6022;48.768;18.608;2023-11-19T07:49:19;1.70;99.90
11925;DHT22;6022;48.768;18.608;2023-11-19T07:54:20;1.30;99.90
11925;DHT22;6022;48.768;18.608;2023-11-19T07:56:48;2.40;99.90
11925;DHT22;6022;48.768;18.608;2023-11-19T07:59:17;2.40;99.90
11925;DHT22;6022;48.768;18.608;2023-11-19T08:01:45;2.30;99.90
11925;DHT22;6022;48.768;18.608;2023-11-19T08:04:15;2.50;99.90
11925;DHT22;6022;48.768;18.608;2023-11-19T08:06:48;2.10;99.90
11925;DHT22;6022;48.768;18.608;2023-11-19T08:09:17;1.80;99.90
11925;DHT22;6022;48.768;18.608;2023-11-19T08:20:38;2.60;99.90
11925;DHT22;6022;48.768;18.608;2023-11-19T08:25:37;3.20;99.90
11925;DHT22;6022;48.768;18.608;2023-11-19T08:30:35;2.30;99.90
11925;DHT22;6022;48.768;18.608;2023-11-19T08:33:57;2.60;99.90
11925;DHT22;6022;48.768;18.608;2023-11-19T08:36:26;2.70;99.90
11925;DHT22;6022;48.768;18.608;2023-11-19T08:38:57;2.50;99.90
11925;DHT22;6022;48.768;18.608;2023-11-19T08:41:31;2.30;99.90
11925;DHT22;6022;48.768;18.608;2023-11-19T08:44:19;2.40;99.90
11925;DHT22;6022;48.768;18.608;2023-11-19T08:49:23;2.40;99.90
11925;DHT22;6022;48.768;18.608;2023-11-19T08:51:58;2.10;99.90
11925;DHT22;6022;48.768;18.608;2023-11-19T08:54:31;2.40;99.90
11925;DHT22;6022;48.768;18.608;2023-11-19T08:57:17;2.20;99.90
11925;DHT22;6022;48.768;18.608;2023-11-19T09:09:41;2.60;99.90
11925;DHT22;6022;48.768;18.608;2023-11-19T09:17:05;2.60;99.90
11925;DHT22;6022;48.768;18.608;2023-11-19T09:19:36;2.40;99.90
11925;DHT22;6022;48.768;18.608;2023-11-19T09:22:03;2.20;99.90
11925;DHT22;6022;48.768;18.608;2023-11-19T09:24:34;2.70;99.90
11925;DHT22;6022;48.768;18.608;2023-11-19T09:27:02;3.00;99.90
11925;DHT22;6022;48.768;18.608;2023-11-19T09:29:31;2.40;99.90
11925;DHT22;6022;48.768;18.608;2023-11-19T09:32:04;3.10;99.90
11925;DHT22;6022;48.768;18.608;2023-11-19T09:34:32;2.90;99.90
11925;DHT22;6022;48.768;18.608;2023-11-19T09:37:03;2.80;99.90
11925;DHT22;6022;48.768;18.608;2023-11-19T09:39:49;3.00;99.90
11925;DHT22;6022;48.768;18.608;2023-11-19T09:42:17;3.60;99.90
11925;DHT22;6022;48.768;18.608;2023-11-19T09:44:45;3.00;99.90
11925;DHT22;6022;48.768;18.608;2023-11-19T09:47:17;3.10;99.90
11925;DHT22;6022;48.768;18.608;2023-11-19T09:49:48;2.70;99.90
11925;DHT22;6022;48.768;18.608;2023-11-19T09:52:17;2.80;99.90
11925;DHT22;6022;48.768;18.608;2023-11-19T09:57:32;2.90;99.90
11925;DHT22;6022;48.768;18.608;2023-11-19T10:00:10;2.90;99.90
11925;DHT22;6022;48.768;18.608;2023-11-19T10:05:11;3.40;99.90
11925;DHT22;6022;48.768;18.608;2023-11-19T10:10:12;3.10;99.90
11925;DHT22;6022;48.768;18.608;2023-11-19T10:12:52;3.30;99.90
11925;DHT22;6022;48.768;18.608;2023-11-19T10:15:24;2.90;99.90
11925;DHT22;6022;48.768;18.608;2023-11-19T10:18:06;3.20;99.90
11925;DHT22;6022;48.768;18.608;2023-11-19T10:23:54;3.30;99.90
11925;DHT22;6022;48.768;18.608;2023-11-19T10:27:16;2.80;99.90
11925;DHT22;6022;48.768;18.608;2023-11-19T10:29:47;2.90;99.90
11925;DHT22;6022;48.768;18.608;2023-11-19T10:35:05;3.10;99.90
11925;DHT22;6022;48.768;18.608;2023-11-19T10:37:34;2.80;99.90
11925;DHT22;6022;48.768;18.608;2023-11-19T10:45:22;3.50;99.90
11925;DHT22;6022;48.768;18.608;2023-11-19T10:47:55;3.30;99.90
11925;DHT22;6022;48.768;18.608;2023-11-19T10:52:56;2.60;99.90
11925;DHT22;6022;48.768;18.608;2023-11-19T10:55:31;2.60;99.90
11925;DHT22;6022;48.768;18.608;2023-11-19T10:58:08;2.70;99.90
11925;DHT22;6022;48.768;18.608;2023-11-19T11:00:47;3.10;99.90
11925;DHT22;6022;48.768;18.608;2023-11-19T11:03:24;2.50;99.90
11925;DHT22;6022;48.768;18.608;2023-11-19T11:05:55;2.50;99.90
11925;DHT22;6022;48.768;18.608;2023-11-19T11:10:55;2.40;99.90
11925;DHT22;6022;48.768;18.608;2023-11-19T11:13:31;3.40;99.90
11925;DHT22;6022;48.768;18.608;2023-11-19T11:21:07;2.30;99.90
11925;DHT22;6022;48.768;18.608;2023-11-19T11:23:56;2.90;99.90
11925;DHT22;6022;48.768;18.608;2023-11-19T11:27:31;3.30;99.90
11925;DHT22;6022;48.768;18.608;2023-11-19T11:36:17;2.80;99.90
11925;DHT22;6022;48.768;18.608;2023-11-19T11:38:51;2.90;99.90
11925;DHT22;6022;48.768;18.608;2023-11-19T11:41:25;3.10;99.90
11925;DHT22;6022;48.768;18.608;2023-11-19T11:43:59;2.60;99.90
11925;DHT22;6022;48.768;18.608;2023-11-19T11:49:05;3.40;99.90
11925;DHT22;6022;48.768;18.608;2023-11-19T11:54:26;2.60;99.90
11925;DHT22;6022;48.768;18.608;2023-11-19T11:57:02;2.50;99.90
11925;DHT22;6022;48.768;18.608;2023-11-19T12:02:16;2.50;99.90
11925;DHT22;6022;48.768;18.608;2023-11-19T12:04:51;2.70;99.90
11925;DHT22;6022;48.768;18.608;2023-11-19T12:07:21;2.70;99.90
11925;DHT22;6022;48.768;18.608;2023-11-19T12:10:06;2.40;99.90
11925;DHT22;6022;48.768;18.608;2023-11-19T12:15:07;3.40;99.90
11925;DHT22;6022;48.768;18.608;2023-11-19T12:17:48;3.10;99.90
11925;DHT22;6022;48.768;18.608;2023-11-19T12:20:19;3.50;99.90
11925;DHT22;6022;48.768;18.608;2023-11-19T12:27:53;3.30;99.90
11925;DHT22;6022;48.768;18.608;2023-11-19T12:30:26;3.60;99.90
11925;DHT22;6022;48.768;18.608;2023-11-19T12:32:54;2.90;99.90
11925;DHT22;6022;48.768;18.608;2023-11-19T12:35:28;3.30;99.90
11925;DHT22;6022;48.768;18.608;2023-11-19T12:40:27;2.20;99.90
11925;DHT22;6022;48.768;18.608;2023-11-19T12:45:36;3.40;99.90
11925;DHT22;6022;48.768;18.608;2023-11-19T12:48:08;3.30;99.90
11925;DHT22;6022;48.768;18.608;2023-11-19T12:53:26;3.00;99.90
11925;DHT22;6022;48.768;18.608;2023-11-19T12:55:55;2.90;99.90
11925;DHT22;6022;48.768;18.608;2023-11-19T13:01:10;2.90;99.90
11925;DHT22;6022;48.768;18.608;2023-11-19T13:06:13;2.50;99.90
11925;DHT22;6022;48.768;18.608;2023-11-19T13:08:47;3.20;99.90
11925;DHT22;6022;48.768;18.608;2023-11-19T13:11:31;3.40;99.90
11925;DHT22;6022;48.768;18.608;2023-11-19T13:14:03;2.70;99.90
11925;DHT22;6022;48.768;18.608;2023-11-19T13:19:36;3.50;99.90
11925;DHT22;6022;48.768;18.608;2023-11-19T13:22:10;3.00;99.90
11925;DHT22;6022;48.768;18.608;2023-11-19T13:24:57;3.30;99.90
11925;DHT22;6022;48.768;18.608;2023-11-19T13:30:24;3.20;99.90
11925;DHT22;6022;48.768;18.608;2023-11-19T13:33:01;2.90;99.90
11925;DHT22;6022;48.768;18.608;2023-11-19T13:35:37;3.40;99.90
11925;DHT22;6022;48.768;18.608;2023-11-19T13:38:20;3.30;99.90
11925;DHT22;6022;48.768;18.608;2023-11-19T13:40:52;3.50;99.90
11925;DHT22;6022;48.768;18.608;2023-11-19T13:43:26;2.80;99.90
11925;DHT22;6022;48.768;18.608;2023-11-19T13:46:08;3.30;99.90
11925;DHT22;6022;48.768;18.608;2023-11-19T13:48:48;3.00;99.90
11925;DHT22;6022;48.768;18.608;2023-11-19T13:51:21;3.60;99.90
11925;DHT22;6022;48.768;18.608;2023-11-19T13:54:16;3.60;99.90
11925;DHT22;6022;48.768;18.608;2023-11-19T13:56:47;2.80;99.90
11925;DHT22;6022;48.768;18.608;2023-11-19T14:01:45;2.50;99.90
11925;DHT22;6022;48.768;18.608;2023-11-19T14:04:13;5.10;99.90
11925;DHT22;6022;48.768;18.608;2023-11-19T14:10:08;2.70;99.90
11925;DHT22;6022;48.768;18.608;2023-11-19T14:15:07;3.30;99.90
11925;DHT22;6022;48.768;18.608;2023-11-19T14:25:10;2.60;99.90
11925;DHT22;6022;48.768;18.608;2023-11-19T14:27:39;2.80;99.90
11925;DHT22;6022;48.768;18.608;2023-11-19T14:30:09;2.80;99.90
11925;DHT22;6022;48.768;18.608;2023-11-19T14:32:41;3.10;99.90
11925;DHT22;6022;48.768;18.608;2023-11-19T14:40:11;2.70;99.90
11925;DHT22;6022;48.768;18.608;2023-11-19T14:42:40;2.80;99.90
11925;DHT22;6022;48.768;18.608;2023-11-19T14:45:08;2.40;99.90
11925;DHT22;6022;48.768;18.608;2023-11-19T14:47:39;2.40;99.90
11925;DHT22;6022;48.768;18.608;2023-11-19T14:55:05;2.80;99.90
11925;DHT22;6022;48.768;18.608;2023-11-19T15:00:04;3.40;99.90
11925;DHT22;6022;48.768;18.608;2023-11-19T15:10:07;2.70;99.90
11925;DHT22;6022;48.768;18.608;2023-11-19T15:15:08;2.90;99.90
11925;DHT22;6022;48.768;18.608;2023-11-19T15:20:07;2.90;99.90
11925;DHT22;6022;48.768;18.608;2023-11-19T15:30:04;3.70;99.90
11925;DHT22;6022;48.768;18.608;2023-11-19T15:32:33;3.10;99.90
11925;DHT22;6022;48.768;18.608;2023-11-19T15:37:30;3.10;99.90
11925;DHT22;6022;48.768;18.608;2023-11-19T15:40:06;3.20;99.90
11925;DHT22;6022;48.768;18.608;2023-11-19T15:42:35;3.60;99.90
11925;DHT22;6022;48.768;18.608;2023-11-19T15:45:03;2.90;99.90
11925;DHT22;6022;48.768;18.608;2023-11-19T15:47:34;3.20;99.90
11925;DHT22;6022;48.768;18.608;2023-11-19T15:50:03;3.00;99.90
11925;DHT22;6022;48.768;18.608;2023-11-19T15:52:31;2.90;99.90
11925;DHT22;6022;48.768;18.608;2023-11-19T15:54:59;3.20;99.90
11925;DHT22;6022;48.768;18.608;2023-11-19T15:57:27;3.00;99.90
11925;DHT22;6022;48.768;18.608;2023-11-19T15:59:55;3.60;99.90
11925;DHT22;6022;48.768;18.608;2023-11-19T16:02:23;3.10;99.90
11925;DHT22;6022;48.768;18.608;2023-11-19T16:04:53;3.00;99.90
11925;DHT22;6022;48.768;18.608;2023-11-19T16:07:23;3.50;99.90
11925;DHT22;6022;48.768;18.608;2023-11-19T16:09:51;3.20;99.90
11925;DHT22;6022;48.768;18.608;2023-11-19T16:12:20;3.00;99.90
11925;DHT22;6022;48.768;18.608;2023-11-19T16:14:48;3.40;99.90
11925;DHT22;6022;48.768;18.608;2023-11-19T16:17:17;3.00;99.90
11925;DHT22;6022;48.768;18.608;2023-11-19T16:19:44;2.80;99.90
11925;DHT22;6022;48.768;18.608;2023-11-19T16:22:15;3.10;99.90
11925;DHT22;6022;48.768;18.608;2023-11-19T16:24:43;3.40;99.90
11925;DHT22;6022;48.768;18.608;2023-11-19T16:27:14;3.40;99.90
11925;DHT22;6022;48.768;18.608;2023-11-19T16:29:46;2.90;99.90
11925;DHT22;6022;48.768;18.608;2023-11-19T16:32:14;3.20;99.90
11925;DHT22;6022;48.768;18.608;2023-11-19T16:34:42;3.00;99.90
11925;DHT22;6022;48.768;18.608;2023-11-19T16:37:09;3.20;99.90
11925;DHT22;6022;48.768;18.608;2023-11-19T16:39:37;3.60;99.90
11925;DHT22;6022;48.768;18.608;2023-11-19T16:42:14;3.50;99.90
11925;DHT22;6022;48.768;18.608;2023-11-19T16:44:42;3.60;99.90
11925;DHT22;6022;48.768;18.608;2023-11-19T16:47:11;3.30;99.90
11925;DHT22;6022;48.768;18.608;2023-11-19T16:49:39;3.20;99.90
11925;DHT22;6022;48.768;18.608;2023-11-19T16:52:09;3.40;99.90
11925;DHT22;6022;48.768;18.608;2023-11-19T16:54:39;3.50;99.90
11925;DHT22;6022;48.768;18.608;2023-11-19T16:57:08;3.30;99.90
11925;DHT22;6022;48.768;18.608;2023-11-19T16:59:36;3.50;99.90
11925;DHT22;6022;48.768;18.608;2023-11-19T17:02:07;3.40;99.90
11925;DHT22;6022;48.768;18.608;2023-11-19T17:04:38;2.70;99.90
11925;DHT22;6022;48.768;18.608;2023-11-19T17:07:05;2.80;99.90
11925;DHT22;6022;48.768;18.608;2023-11-19T17:09:33;3.50;99.90
11925;DHT22;6022;48.768;18.608;2023-11-19T17:12:01;3.60;99.90
11925;DHT22;6022;48.768;18.608;2023-11-19T17:14:32;3.60;99.90
11925;DHT22;6022;48.768;18.608;2023-11-19T17:17:08;3.50;99.90
11925;DHT22;6022;48.768;18.608;2023-11-19T17:19:37;3.40;99.90
11925;DHT22;6022;48.768;18.608;2023-11-19T17:22:07;3.10;99.90
11925;DHT22;6022;48.768;18.608;2023-11-19T17:24:41;3.70;99.90
11925;DHT22;6022;48.768;18.608;2023-11-19T17:27:22;2.90;99.90
11925;DHT22;6022;48.768;18.608;2023-11-19T17:30:03;2.70;99.90
11925;DHT22;6022;48.768;18.608;2023-11-19T17:32:38;3.60;99.90
11925;DHT22;6022;48.768;18.608;2023-11-19T17:35:24;2.70;99.90
11925;DHT22;6022;48.768;18.608;2023-11-19T17:37:53;3.10;99.90
11925;DHT22;6022;48.768;18.608;2023-11-19T17:40:29;3.10;99.90
11925;DHT22;6022;48.768;18.608;2023-11-19T17:42:58;3.30;99.90
11925;DHT22;6022;48.768;18.608;2023-11-19T17:45:27;3.10;99.90
11925;DHT22;6022;48.768;18.608;2023-11-19T17:47:57;3.10;99.90
11925;DHT22;6022;48.768;18.608;2023-11-19T17:50:25;3.20;99.90
11925;DHT22;6022;48.768;18.608;2023-11-19T17:52:56;3.70;99.90
11925;DHT22;6022;48.768;18.608;2023-11-19T17:58:57;3.40;99.90
11925;DHT22;6022;48.768;18.608;2023-11-19T18:01:26;3.60;99.90
11925;DHT22;6022;48.768;18.608;2023-11-19T18:03:54;3.50;99.90
11925;DHT22;6022;48.768;18.608;2023-11-19T18:08:52;3.30;99.90
11925;DHT22;6022;48.768;18.608;2023-11-19T18:11:20;3.30;99.90
11925;DHT22;6022;48.768;18.608;2023-11-19T18:13:52;2.90;99.90
11925;DHT22;6022;48.768;18.608;2023-11-19T18:16:30;3.30;99.90
11925;DHT22;6022;48.768;18.608;2023-11-19T18:19:13;3.30;99.90
11925;DHT22;6022;48.768;18.608;2023-11-19T18:21:50;3.50;99.90
11925;DHT22;6022;48.768;18.608;2023-11-19T18:24:20;3.30;99.90
11925;DHT22;6022;48.768;18.608;2023-11-19T18:26:52;3.20;99.90
11925;DHT22;6022;48.768;18.608;2023-11-19T18:29:24;3.30;99.90
11925;DHT22;6022;48.768;18.608;2023-11-19T18:31:51;3.30;99.90
11925;DHT22;6022;48.768;18.608;2023-11-19T18:34:19;3.40;99.90
11925;DHT22;6022;48.768;18.608;2023-11-19T18:39:16;3.50;99.90
11925;DHT22;6022;48.768;18.608;2023-11-19T18:44:12;2.80;99.90
11925;DHT22;6022;48.768;18.608;2023-11-19T18:46:42;3.30;99.90
11925;DHT22;6022;48.768;18.608;2023-11-19T18:49:09;2.60;99.90
11925;DHT22;6022;48.768;18.608;2023-11-19T18:54:08;3.20;99.90
11925;DHT22;6022;48.768;18.608;2023-11-19T18:56:37;3.10;99.90
11925;DHT22;6022;48.768;18.608;2023-11-19T18:59:05;3.40;99.90
11925;DHT22;6022;48.768;18.608;2023-11-19T19:01:39;2.90;99.90
11925;DHT22;6022;48.768;18.608;2023-11-19T19:04:12;1.00;99.90
11925;DHT22;6022;48.768;18.608;2023-11-19T19:06:41;3.30;99.90
11925;DHT22;6022;48.768;18.608;2023-11-19T19:09:09;3.20;99.90
11925;DHT22;6022;48.768;18.608;2023-11-19T19:11:41;3.80;99.90
11925;DHT22;6022;48.768;18.608;2023-11-19T19:14:09;3.70;99.90
11925;DHT22;6022;48.768;18.608;2023-11-19T19:21:40;3.80;99.90
11925;DHT22;6022;48.768;18.608;2023-11-19T19:24:11;3.20;99.90
11925;DHT22;6022;48.768;18.608;2023-11-19T19:26:41;3.90;99.90
11925;DHT22;6022;48.768;18.608;2023-11-19T19:29:09;2.80;99.90
11925;DHT22;6022;48.768;18.608;2023-11-19T19:34:07;3.80;99.90
11925;DHT22;6022;48.768;18.608;2023-11-19T19:36:35;3.30;99.90
11925;DHT22;6022;48.768;18.608;2023-11-19T19:39:03;3.80;99.90
11925;DHT22;6022;48.768;18.608;2023-11-19T19:44:09;3.00;99.90
11925;DHT22;6022;48.768;18.608;2023-11-19T19:49:11;2.90;99.90
11925;DHT22;6022;48.768;18.608;2023-11-19T19:54:18;4.00;99.90
11925;DHT22;6022;48.768;18.608;2023-11-19T19:59:15;3.90;99.90
11925;DHT22;6022;48.768;18.608;2023-11-19T20:01:43;3.90;99.90
11925;DHT22;6022;48.768;18.608;2023-11-19T20:11:42;3.00;99.90
11925;DHT22;6022;48.768;18.608;2023-11-19T20:14:14;3.70;99.90
11925;DHT22;6022;48.768;18.608;2023-11-19T20:16:42;3.90;99.90
11925;DHT22;6022;48.768;18.608;2023-11-19T20:19:12;3.30;99.90
11925;DHT22;6022;48.768;18.608;2023-11-19T20:24:16;2.80;99.90
11925;DHT22;6022;48.768;18.608;2023-11-19T20:29:27;3.10;99.90
11925;DHT22;6022;48.768;18.608;2023-11-19T20:31:56;3.20;99.90
11925;DHT22;6022;48.768;18.608;2023-11-19T20:34:47;4.00;99.90
11925;DHT22;6022;48.768;18.608;2023-11-19T20:38:01;3.30;99.90
11925;DHT22;6022;48.768;18.608;2023-11-19T20:40:31;3.60;99.90
11925;DHT22;6022;48.768;18.608;2023-11-19T20:43:05;3.80;99.90
11925;DHT22;6022;48.768;18.608;2023-11-19T20:45:43;3.50;99.90
11925;DHT22;6022;48.768;18.608;2023-11-19T20:48:12;3.10;99.90
11925;DHT22;6022;48.768;18.608;2023-11-19T20:50:44;2.80;99.90
11925;DHT22;6022;48.768;18.608;2023-11-19T20:55:46;3.30;99.90
11925;DHT22;6022;48.768;18.608;2023-11-19T20:58:17;3.40;99.90
11925;DHT22;6022;48.768;18.608;2023-11-19T21:00:49;2.90;99.90
11925;DHT22;6022;48.768;18.608;2023-11-19T21:03:23;3.30;99.90
11925;DHT22;6022;48.768;18.608;2023-11-19T21:06:11;3.10;99.90
11925;DHT22;6022;48.768;18.608;2023-11-19T21:08:44;3.40;99.90
11925;DHT22;6022;48.768;18.608;2023-11-19T21:11:26;3.60;99.90
11925;DHT22;6022;48.768;18.608;2023-11-19T21:16:27;3.80;99.90
11925;DHT22;6022;48.768;18.608;2023-11-19T21:18:59;3.20;99.90
11925;DHT22;6022;48.768;18.608;2023-11-19T21:21:37;3.80;99.90
11925;DHT22;6022;48.768;18.608;2023-11-19T21:24:08;3.60;99.90
11925;DHT22;6022;48.768;18.608;2023-11-19T21:26:40;4.00;99.90
11925;DHT22;6022;48.768;18.608;2023-11-19T21:29:10;3.70;99.90
11925;DHT22;6022;48.768;18.608;2023-11-19T21:31:45;3.70;99.90
11925;DHT22;6022;48.768;18.608;2023-11-19T21:39:40;3.40;99.90
11925;DHT22;6022;48.768;18.608;2023-11-19T21:42:10;3.90;99.90
11925;DHT22;6022;48.768;18.608;2023-11-19T21:44:40;3.50;99.90
11925;DHT22;6022;48.768;18.608;2023-11-19T21:47:09;3.60;99.90
11925;DHT22;6022;48.768;18.608;2023-11-19T21:49:40;4.10;99.90
11925;DHT22;6022;48.768;18.608;2023-11-19T21:52:11;3.90;99.90
11925;DHT22;6022;48.768;18.608;2023-11-19T21:54:40;3.50;99.90
11925;DHT22;6022;48.768;18.608;2023-11-19T21:57:09;4.20;99.90
11925;DHT22;6022;48.768;18.608;2023-11-19T21:59:40;3.70;99.90
11925;DHT22;6022;48.768;18.608;2023-11-19T22:02:08;3.90;99.90
11925;DHT22;6022;48.768;18.608;2023-11-19T22:07:08;3.50;99.90
11925;DHT22;6022;48.768;18.608;2023-11-19T22:09:36;3.30;99.90
11925;DHT22;6022;48.768;18.608;2023-11-19T22:12:06;3.90;99.90
11925;DHT22;6022;48.768;18.608;2023-11-19T22:17:09;3.70;99.90
11925;DHT22;6022;48.768;18.608;2023-11-19T22:19:40;3.70;99.90
11925;DHT22;6022;48.768;18.608;2023-11-19T22:22:08;3.70;99.90
11925;DHT22;6022;48.768;18.608;2023-11-19T22:27:05;3.60;99.90
11925;DHT22;6022;48.768;18.608;2023-11-19T22:32:01;3.20;99.90
11925;DHT22;6022;48.768;18.608;2023-11-19T22:37:09;3.50;99.90
11925;DHT22;6022;48.768;18.608;2023-11-19T22:39:37;3.70;99.90
11925;DHT22;6022;48.768;18.608;2023-11-19T22:42:05;3.10;99.90